Time;durP1;ratioP1;P1;durP2;ratioP2;P2;SDS_P1;SDS_P2;PMS_P1;PMS_P2;Temp;Humidity;BMP_temperature;BMP_pressure;BME280_temperature;BME280_humidity;BME280_pressure;Samples;Min_cycle;Max_cycle;Signal;HPM_P1;HPM_P2
2021/08/05 00:02:14;;;;;;;16.02;7.53;;;;;;;27.03;38.39;99234.81;5112938;28;20151;-67
2021/08/05 00:04:40;;;;;;;17.10;7.40;;;;;;;27.05;38.36;99229.41;5112493;28;20023;-67
2021/08/05 00:07:05;;;;;;;15.68;7.22;;;;;;;27.04;38.58;99227.81;5110254;27;20077;-69
2021/08/05 00:09:33;;;;;;;15.13;6.20;;;;;;;27.13;38.25;99230.00;5124924;27;20034;-69
2021/08/05 00:11:58;;;;;;;14.50;5.75;;;;;;;26.96;38.71;99229.25;5120029;27;20127;-68
2021/08/05 00:14:23;;;;;;;16.80;6.53;;;;;;;27.05;38.35;99231.47;5111319;28;20098;-68
2021/08/05 00:16:49;;;;;;;15.10;6.40;;;;;;;26.95;38.75;99230.53;5113313;27;20074;-67
2021/08/05 00:19:15;;;;;;;12.38;5.70;;;;;;;27.06;38.15;99224.47;5128415;27;20019;-69
2021/08/05 00:21:40;;;;;;;19.35;8.15;;;;;;;27.04;37.98;99222.06;5131271;27;20042;-67
2021/08/05 00:24:06;;;;;;;20.02;7.07;;;;;;;26.85;38.53;99225.88;5128633;27;20015;-67
2021/08/05 00:26:31;;;;;;;18.38;7.10;;;;;;;26.69;38.73;99223.84;5110946;27;20476;-67
2021/08/05 00:28:57;;;;;;;15.23;6.80;;;;;;;26.77;38.09;99231.78;5114802;27;20027;-67
2021/08/05 00:31:22;;;;;;;16.58;7.00;;;;;;;26.56;38.64;99238.94;5112718;27;20124;-69
2021/08/05 00:33:47;;;;;;;10.20;5.50;;;;;;;26.85;37.82;99243.91;5109911;28;20394;-67
2021/08/05 00:36:13;;;;;;;10.02;6.18;;;;;;;26.55;37.53;99242.28;5120466;27;20081;-66
2021/08/05 00:38:39;;;;;;;14.73;6.57;;;;;;;26.71;38.31;99244.28;5123356;27;20046;-68
2021/08/05 00:41:05;;;;;;;16.52;5.63;;;;;;;26.68;37.28;99240.28;5120152;27;20106;-67
2021/08/05 00:43:30;;;;;;;19.02;6.50;;;;;;;26.65;37.10;99231.75;5119778;27;20031;-70
2021/08/05 00:45:55;;;;;;;18.60;7.57;;;;;;;26.60;36.99;99228.16;5123318;27;20035;-68
2021/08/05 00:48:21;;;;;;;18.55;6.40;;;;;;;26.61;37.35;99237.59;5129587;27;20015;-68
2021/08/05 00:50:48;;;;;;;10.93;5.72;;;;;;;26.66;37.48;99237.03;5130885;27;20031;-66
2021/08/05 00:53:15;;;;;;;19.58;5.70;;;;;;;26.60;37.39;99238.84;5113433;27;20024;-67
2021/08/05 00:55:41;;;;;;;11.95;5.55;;;;;;;26.67;36.83;99238.66;5109680;28;20038;-67
2021/08/05 00:58:06;;;;;;;18.25;7.05;;;;;;;26.69;36.96;99239.00;5115681;27;20489;-68
2021/08/05 01:00:32;;;;;;;11.65;5.57;;;;;;;26.47;37.01;99236.72;5115803;27;20063;-69
2021/08/05 01:03:05;;;;;;;18.88;6.75;;;;;;;26.30;37.52;99247.41;5114080;27;20035;-69
2021/08/05 01:05:37;;;;;;;13.13;6.18;;;;;;;26.21;37.52;99241.50;5110740;28;20396;-69
2021/08/05 01:08:09;;;;;;;15.57;6.72;;;;;;;26.22;37.49;99248.84;5111515;28;20023;-69
2021/08/05 01:10:52;;;;;;;17.17;6.60;;;;;;;25.99;37.82;99241.22;5112231;27;20038;-69
2021/08/05 01:13:40;;;;;;;13.60;5.85;;;;;;;25.76;38.74;99254.44;5122229;27;20057;-68
2021/08/05 01:16:11;;;;;;;18.55;6.53;;;;;;;25.79;38.77;99247.81;5110191;27;20161;-68
2021/08/05 01:18:38;;;;;;;13.68;6.00;;;;;;;25.64;38.79;99251.00;5127359;27;20023;-66
2021/08/05 01:21:34;;;;;;;13.48;5.75;;;;;;;25.53;39.21;99261.09;5108736;27;20723;-69
2021/08/05 01:24:03;;;;;;;11.68;6.07;;;;;;;25.20;40.53;99262.56;5112502;27;20449;-68
2021/08/05 01:26:47;;;;;;;13.82;6.03;;;;;;;25.31;40.55;99261.53;5114303;27;20042;-66
2021/08/05 01:29:14;;;;;;;15.55;5.88;;;;;;;25.18;40.85;99261.41;5112933;27;20033;-66
2021/08/05 01:31:41;;;;;;;18.30;6.75;;;;;;;25.12;41.29;99252.50;5114344;27;20066;-66
2021/08/05 01:34:06;;;;;;;16.30;6.55;;;;;;;25.01;41.44;99261.34;5116312;27;20020;-67
2021/08/05 01:36:33;;;;;;;14.38;6.63;;;;;;;24.93;41.97;99251.28;5114311;27;20051;-68
2021/08/05 01:38:59;;;;;;;13.98;6.60;;;;;;;25.05;42.04;99244.88;5111786;27;20412;-67
2021/08/05 01:41:28;;;;;;;15.50;6.38;;;;;;;24.99;42.13;99248.72;5116106;27;20027;-66
2021/08/05 01:43:53;;;;;;;15.77;5.80;;;;;;;24.94;42.20;99250.84;5113702;27;20016;-69
2021/08/05 01:46:20;;;;;;;15.55;6.93;;;;;;;25.00;42.17;99248.28;5115360;27;20025;-69
2021/08/05 01:48:48;;;;;;;16.67;6.57;;;;;;;25.07;42.10;99250.19;5110476;27;20107;-67
2021/08/05 01:51:14;;;;;;;13.68;6.85;;;;;;;25.02;42.34;99245.78;5117110;27;20533;-66
2021/08/05 01:53:40;;;;;;;13.63;6.63;;;;;;;25.05;42.79;99249.81;5113903;28;20516;-67
2021/08/05 01:56:06;;;;;;;11.70;5.97;;;;;;;24.99;43.00;99249.53;5109975;28;20097;-66
2021/08/05 01:58:31;;;;;;;15.60;6.65;;;;;;;25.01;43.43;99246.22;5125575;27;20068;-67
2021/08/05 02:00:57;;;;;;;14.23;7.22;;;;;;;25.15;43.55;99233.66;5114593;27;20539;-66
2021/08/05 02:03:25;;;;;;;24.65;8.02;;;;;;;25.23;43.50;99232.28;5096333;28;20498;-69
2021/08/05 02:06:07;;;;;;;11.75;6.85;;;;;;;25.16;43.89;99229.56;5107585;28;20040;-69
2021/08/05 02:09:04;;;;;;;15.65;6.78;;;;;;;25.23;43.97;99235.13;5098382;27;20016;-67
2021/08/05 02:11:34;;;;;;;11.90;6.70;;;;;;;25.36;44.19;99233.22;5094367;27;20051;-66
2021/08/05 02:14:02;;;;;;;38.92;7.35;;;;;;;25.18;43.98;99242.19;5097641;27;20031;-66
2021/08/05 02:16:29;;;;;;;31.52;7.38;;;;;;;25.25;44.01;99229.78;5112712;27;20036;-66
2021/08/05 02:18:55;;;;;;;27.20;7.95;;;;;;;25.30;43.74;99237.81;5126212;27;20060;-67
2021/08/05 02:21:24;;;;;;;37.35;7.18;;;;;;;25.30;43.49;99240.69;5126099;27;20577;-69
2021/08/05 02:23:52;;;;;;;22.45;7.65;;;;;;;25.32;43.13;99238.19;5116447;27;20024;-72
2021/08/05 02:26:19;;;;;;;17.33;7.53;;;;;;;25.16;43.74;99235.28;5122284;27;20415;-66
2021/08/05 02:28:45;;;;;;;16.17;6.75;;;;;;;25.23;43.80;99240.88;5119669;27;20050;-69
2021/08/05 02:31:13;;;;;;;16.25;7.15;;;;;;;25.42;43.40;99235.53;5123931;27;20038;-71
2021/08/05 02:33:38;;;;;;;17.20;7.90;;;;;;;25.39;43.79;99245.81;5111704;27;20103;-67
2021/08/05 02:36:04;;;;;;;14.18;6.30;;;;;;;25.57;43.08;99242.56;5117678;27;20107;-68
2021/08/05 02:38:30;;;;;;;16.35;7.43;;;;;;;25.66;42.72;99236.25;5116063;27;20036;-71
2021/08/05 02:40:56;;;;;;;26.40;7.10;;;;;;;25.59;43.22;99242.13;5108162;27;20544;-71
2021/08/05 02:43:26;;;;;;;14.13;7.85;;;;;;;25.64;43.04;99250.19;5115682;27;20026;-71
2021/08/05 02:45:52;;;;;;;16.35;6.90;;;;;;;25.64;42.74;99248.16;5111243;27;20443;-71
2021/08/05 02:48:18;;;;;;;13.38;6.32;;;;;;;25.57;43.24;99248.28;5113951;28;20038;-72
2021/08/05 02:50:45;;;;;;;13.35;6.80;;;;;;;25.51;43.26;99248.00;5127450;27;20067;-71
2021/08/05 02:53:11;;;;;;;13.88;7.03;;;;;;;25.41;43.71;99248.25;5117781;27;20027;-71
2021/08/05 02:55:37;;;;;;;16.25;7.38;;;;;;;25.29;43.52;99249.72;5132762;27;20027;-71
2021/08/05 02:58:03;;;;;;;16.85;6.90;;;;;;;25.32;43.75;99241.03;5126655;27;20034;-71
2021/08/05 03:00:29;;;;;;;12.63;6.60;;;;;;;25.28;44.58;99236.66;5130954;27;20092;-68
2021/08/05 03:02:55;;;;;;;18.42;7.57;;;;;;;25.26;44.41;99239.97;5128204;27;20477;-68
2021/08/05 03:05:21;;;;;;;16.98;6.90;;;;;;;25.32;44.09;99238.19;5119591;27;20026;-68
2021/08/05 03:07:47;;;;;;;15.70;8.60;;;;;;;25.30;43.62;99243.56;5124438;27;20584;-69
2021/08/05 03:10:15;;;;;;;29.85;8.40;;;;;;;25.42;44.06;99242.09;5112491;27;20566;-68
2021/08/05 03:12:40;;;;;;;18.08;6.95;;;;;;;25.29;44.05;99244.81;5122497;27;20023;-68
2021/08/05 03:15:07;;;;;;;24.25;6.97;;;;;;;25.19;43.99;99238.06;5119265;27;20063;-68
2021/08/05 03:17:33;;;;;;;15.00;6.40;;;;;;;25.00;44.20;99242.56;5123183;27;20019;-68
2021/08/05 03:19:58;;;;;;;22.98;8.30;;;;;;;24.94;43.85;99245.13;5117918;27;20030;-68
2021/08/05 03:22:24;;;;;;;21.05;6.97;;;;;;;25.00;43.82;99251.13;5122650;27;20039;-70
2021/08/05 03:24:49;;;;;;;16.48;7.43;;;;;;;24.95;44.32;99245.91;5118474;27;20023;-68
2021/08/05 03:27:15;;;;;;;26.25;7.68;;;;;;;24.94;44.38;99255.75;5112628;27;20019;-68
2021/08/05 03:29:40;;;;;;;29.17;8.07;;;;;;;24.96;44.44;99244.66;5131941;27;20035;-68
2021/08/05 03:32:06;;;;;;;16.85;7.20;;;;;;;24.88;45.01;99249.72;5131274;27;20112;-68
2021/08/05 03:34:32;;;;;;;19.30;7.50;;;;;;;24.78;45.09;99245.84;5115414;27;20024;-69
2021/08/05 03:36:57;;;;;;;15.25;7.40;;;;;;;24.73;44.77;99246.31;5123884;27;20099;-68
2021/08/05 03:39:23;;;;;;;24.90;6.95;;;;;;;24.68;44.88;99256.22;5116991;27;20054;-70
2021/08/05 03:41:49;;;;;;;20.10;7.60;;;;;;;24.56;45.39;99256.03;5129429;27;20026;-68
2021/08/05 03:44:15;;;;;;;16.17;7.20;;;;;;;24.49;45.54;99251.25;5107846;27;20408;-69
2021/08/05 03:46:40;;;;;;;23.83;8.35;;;;;;;24.41;45.79;99253.44;5128274;27;20023;-68
2021/08/05 03:49:06;;;;;;;21.58;8.18;;;;;;;24.43;45.82;99253.81;5126213;27;20019;-68
2021/08/05 03:51:32;;;;;;;24.05;8.13;;;;;;;24.37;46.34;99250.66;5118673;27;20082;-68
2021/08/05 03:53:58;;;;;;;22.55;8.18;;;;;;;24.40;46.16;99261.19;5126540;27;20042;-69
2021/08/05 03:56:23;;;;;;;21.75;8.43;;;;;;;24.40;46.19;99260.41;5126509;27;20054;-68
2021/08/05 03:58:49;;;;;;;20.00;8.07;;;;;;;24.42;45.99;99248.53;5126260;27;20079;-68
2021/08/05 04:01:14;;;;;;;24.83;7.88;;;;;;;24.30;46.04;99255.69;5109775;27;20043;-68
2021/08/05 04:03:40;;;;;;;20.65;7.43;;;;;;;24.31;46.12;99248.72;5119050;27;20027;-68
2021/08/05 04:06:05;;;;;;;51.72;9.70;;;;;;;24.44;45.87;99243.19;5107195;27;20051;-68
2021/08/05 04:08:31;;;;;;;21.98;8.13;;;;;;;24.52;45.75;99244.66;5112285;27;20031;-68
2021/08/05 04:10:56;;;;;;;33.70;8.02;;;;;;;24.56;45.25;99247.47;5120872;27;20036;-69
2021/08/05 04:13:22;;;;;;;39.60;10.20;;;;;;;24.62;45.89;99245.72;5108121;28;20039;-74
2021/08/05 04:15:47;;;;;;;27.02;8.18;;;;;;;24.77;45.46;99246.28;5112819;28;20803;-71
2021/08/05 04:18:13;;;;;;;44.72;8.60;;;;;;;24.80;45.77;99240.47;5106052;28;20435;-74
2021/08/05 04:20:39;;;;;;;19.15;8.02;;;;;;;24.88;45.38;99241.16;5112492;27;20122;-75
2021/08/05 04:23:04;;;;;;;22.50;7.97;;;;;;;24.77;45.71;99234.84;5110928;28;20030;-74
2021/08/05 04:25:30;;;;;;;25.67;9.02;;;;;;;24.75;45.76;99240.97;5112199;28;20040;-70
2021/08/05 04:27:55;;;;;;;22.77;8.25;;;;;;;24.86;45.16;99228.53;5097478;28;20061;-72
2021/08/05 04:30:25;;;;;;;18.95;7.50;;;;;;;24.90;46.08;99224.34;5110321;28;20061;-75
2021/08/05 04:32:51;;;;;;;16.65;6.95;;;;;;;24.92;45.64;99221.88;5109880;28;20419;-73
2021/08/05 04:35:17;;;;;;;27.70;8.30;;;;;;;25.08;45.10;99226.84;5105862;28;20123;-72
2021/08/05 04:37:54;;;;;;;12.70;6.95;;;;;;;25.04;45.11;99220.41;5107733;28;20286;-72
2021/08/05 04:40:21;;;;;;;37.95;8.73;;;;;;;24.98;45.89;99222.16;5096958;28;20062;-72
2021/08/05 04:43:11;;;;;;;25.38;8.32;;;;;;;24.93;45.97;99222.66;5109070;28;20033;-75
2021/08/05 04:45:36;;;;;;;;;;;;;;;24.96;45.84;99224.63;5094082;28;20050;-71
2021/08/05 04:48:07;;;;;;;20.77;8.23;;;;;;;25.01;45.97;99221.28;5097459;27;19912;-71
2021/08/05 04:50:35;;;;;;;31.25;8.40;;;;;;;25.00;46.08;99213.94;5106293;28;20032;-71
2021/08/05 04:53:02;;;;;;;22.10;7.88;;;;;;;25.11;45.14;99213.72;5102887;27;20032;-75
2021/08/05 04:55:29;;;;;;;20.75;7.97;;;;;;;25.26;45.08;99211.34;5103976;28;20053;-74
2021/08/05 04:57:55;;;;;;;15.85;6.78;;;;;;;25.28;44.67;99210.91;5106907;28;20020;-71
2021/08/05 05:00:25;;;;;;;21.27;7.32;;;;;;;25.23;44.95;99213.03;5106542;28;20073;-74
2021/08/05 05:02:51;;;;;;;19.60;7.18;;;;;;;25.37;44.67;99213.97;5105266;28;20050;-71
2021/08/05 05:05:17;;;;;;;21.38;7.97;;;;;;;25.45;45.03;99208.88;5105747;28;20730;-73
2021/08/05 05:07:42;;;;;;;23.15;8.27;;;;;;;25.42;45.23;99216.31;5094378;28;20068;-74
2021/08/05 05:10:09;;;;;;;21.85;7.35;;;;;;;25.52;45.32;99220.22;5105672;28;20485;-75
2021/08/05 05:12:34;;;;;;;13.43;7.25;;;;;;;25.71;45.47;99215.66;5098340;28;20028;-74
2021/08/05 05:15:00;;;;;;;15.98;6.93;;;;;;;25.79;45.09;99213.44;5098427;28;20057;-74
2021/08/05 05:17:26;;;;;;;16.00;6.90;;;;;;;25.86;44.71;99216.13;5101649;28;20038;-74
2021/08/05 05:19:52;;;;;;;13.02;6.53;;;;;;;25.91;44.79;99212.72;5099720;28;20016;-74
2021/08/05 05:22:18;;;;;;;18.55;7.35;;;;;;;25.94;45.13;99208.16;5106656;28;20058;-75
2021/08/05 05:24:43;;;;;;;13.80;6.93;;;;;;;25.93;44.75;99203.69;5111101;28;20062;-75
2021/08/05 05:27:09;;;;;;;17.15;7.25;;;;;;;25.92;44.99;99196.34;5109682;28;20030;-74
2021/08/05 05:29:36;;;;;;;16.25;6.88;;;;;;;25.98;45.56;99200.28;5108941;28;20541;-73
2021/08/05 05:32:02;;;;;;;15.98;6.88;;;;;;;26.02;45.06;99198.16;5106766;28;20039;-75
2021/08/05 05:34:28;;;;;;;14.77;7.40;;;;;;;26.08;45.22;99198.41;5109505;28;20016;-75
2021/08/05 05:36:53;;;;;;;16.38;6.78;;;;;;;26.14;44.85;99196.59;5109744;28;20493;-73
2021/08/05 05:39:18;;;;;;;13.10;6.90;;;;;;;26.14;44.93;99204.41;5105809;28;20482;-76
2021/08/05 05:41:44;;;;;;;13.85;7.53;;;;;;;26.16;44.74;99205.56;5100839;28;20553;-73
2021/08/05 05:44:09;;;;;;;18.85;8.48;;;;;;;26.19;45.43;99204.69;5110682;28;20447;-74
2021/08/05 05:46:35;;;;;;;17.38;8.30;;;;;;;26.24;44.86;99211.13;5109770;28;20405;-72
2021/08/05 05:49:01;;;;;;;11.73;7.50;;;;;;;26.33;45.07;99209.22;5104889;28;20032;-74
2021/08/05 05:51:26;;;;;;;15.98;7.88;;;;;;;26.35;45.07;99205.94;5105982;28;20040;-72
2021/08/05 05:53:51;;;;;;;17.70;7.53;;;;;;;26.47;45.18;99208.06;5100016;28;20011;-72
2021/08/05 05:56:17;;;;;;;25.35;7.75;;;;;;;26.49;45.22;99199.78;5111026;28;20390;-74
2021/08/05 05:58:42;;;;;;;24.10;8.07;;;;;;;26.49;45.17;99194.06;5105753;28;20401;-74
2021/08/05 06:01:08;;;;;;;17.05;8.77;;;;;;;26.61;44.68;99195.38;5109246;28;20104;-73
2021/08/05 06:03:34;;;;;;;20.98;8.45;;;;;;;26.66;44.97;99188.28;5109556;28;20043;-74
2021/08/05 06:06:00;;;;;;;21.13;7.90;;;;;;;26.76;44.74;99192.91;5110038;28;20454;-74
2021/08/05 06:08:25;;;;;;;17.25;8.38;;;;;;;26.81;44.54;99193.63;5094155;28;20489;-73
2021/08/05 06:10:51;;;;;;;14.50;8.43;;;;;;;26.90;44.12;99190.91;5109463;28;20024;-74
2021/08/05 06:13:16;;;;;;;32.83;8.63;;;;;;;27.04;44.11;99198.28;5110613;28;20032;-74
2021/08/05 06:15:41;;;;;;;23.55;10.40;;;;;;;26.96;44.43;99191.97;5104951;28;20024;-74
2021/08/05 06:18:07;;;;;;;27.42;8.60;;;;;;;27.00;44.93;99195.53;5097318;28;20556;-74
2021/08/05 06:20:32;;;;;;;23.85;9.35;;;;;;;27.10;44.61;99195.66;5109369;28;20468;-74
2021/08/05 06:22:58;;;;;;;16.85;7.95;;;;;;;27.13;44.20;99192.69;5109375;28;20040;-75
2021/08/05 06:25:24;;;;;;;16.08;8.35;;;;;;;27.28;44.00;99190.19;5104083;28;20039;-72
2021/08/05 06:27:49;;;;;;;20.15;8.95;;;;;;;27.35;44.04;99188.34;5110434;28;20489;-72
2021/08/05 06:30:15;;;;;;;12.75;8.57;;;;;;;27.46;44.38;99191.69;5110561;28;20059;-74
2021/08/05 06:32:41;;;;;;;18.20;8.52;;;;;;;27.53;44.61;99182.03;5109120;28;20496;-75
2021/08/05 06:35:07;;;;;;;17.55;8.13;;;;;;;27.58;44.71;99172.91;5098724;28;20032;-74
2021/08/05 06:37:35;;;;;;;16.65;8.65;;;;;;;27.64;43.88;99170.25;5110238;28;20024;-74
2021/08/05 06:40:00;;;;;;;16.77;8.82;;;;;;;27.73;44.00;99167.47;5110260;28;20051;-74
2021/08/05 06:42:27;;;;;;;15.35;8.15;;;;;;;27.79;44.39;99168.50;5108829;28;20475;-73
2021/08/05 06:44:52;;;;;;;12.88;8.52;;;;;;;27.92;44.47;99162.72;5106002;28;20028;-72
2021/08/05 06:47:18;;;;;;;19.17;8.38;;;;;;;27.89;44.30;99164.47;5110192;28;20481;-72
2021/08/05 06:49:43;;;;;;;12.45;9.50;;;;;;;27.98;43.85;99160.06;5110187;28;20416;-72
2021/08/05 06:52:09;;;;;;;14.95;8.90;;;;;;;28.19;43.13;99170.06;5101444;28;20043;-72
2021/08/05 06:54:35;;;;;;;21.42;9.25;;;;;;;28.14;43.70;99159.94;5110261;28;20039;-72
2021/08/05 06:57:00;;;;;;;16.75;8.70;;;;;;;28.15;43.50;99152.09;5113907;28;20412;-72
2021/08/05 06:59:25;;;;;;;16.58;9.02;;;;;;;28.15;43.77;99152.09;5114105;28;20023;-74
2021/08/05 07:01:51;;;;;;;15.02;8.82;;;;;;;28.22;43.92;99153.94;5108638;28;20063;-72
2021/08/05 07:04:16;;;;;;;15.90;8.45;;;;;;;28.37;43.90;99154.25;5113806;28;20036;-72
2021/08/05 07:06:42;;;;;;;15.52;10.10;;;;;;;28.45;43.95;99141.22;5112273;28;20023;-72
2021/08/05 07:09:08;;;;;;;16.27;10.48;;;;;;;28.47;44.18;99146.50;5113649;28;20420;-71
2021/08/05 07:11:33;;;;;;;14.45;9.38;;;;;;;28.52;44.07;99143.03;5105828;28;20031;-75
2021/08/05 07:13:59;;;;;;;18.65;9.68;;;;;;;28.52;43.89;99131.53;5113724;28;20519;-74
2021/08/05 07:16:24;;;;;;;16.88;10.18;;;;;;;28.61;43.71;99119.28;5112517;28;20039;-75
2021/08/05 07:18:50;;;;;;;28.27;9.98;;;;;;;28.80;44.00;99123.06;5111702;28;20024;-74
2021/08/05 07:21:15;;;;;;;15.65;11.15;;;;;;;28.92;42.67;99116.47;5107821;28;20493;-74
2021/08/05 07:23:41;;;;;;;16.88;9.27;;;;;;;28.99;42.66;99116.19;5113546;28;20038;-75
2021/08/05 07:26:06;;;;;;;20.33;14.45;;;;;;;29.08;42.68;99111.75;5113641;28;20374;-75
2021/08/05 07:28:32;;;;;;;13.60;9.85;;;;;;;29.12;42.21;99115.31;5106678;28;20032;-73
2021/08/05 07:30:58;;;;;;;16.40;10.85;;;;;;;29.11;42.65;99105.84;5111892;28;20066;-73
2021/08/05 07:33:24;;;;;;;20.08;10.77;;;;;;;29.16;42.93;99106.53;5096966;28;20579;-73
2021/08/05 07:35:49;;;;;;;17.02;10.93;;;;;;;29.17;42.63;99108.91;5111769;28;20028;-75
2021/08/05 07:38:15;;;;;;;17.50;10.25;;;;;;;29.19;42.73;99106.34;5105285;28;20070;-73
2021/08/05 07:40:41;;;;;;;18.00;11.57;;;;;;;29.41;44.18;99093.97;5104932;27;20028;-73
2021/08/05 07:43:06;;;;;;;25.98;11.40;;;;;;;29.45;43.49;99094.69;5111750;28;20016;-74
2021/08/05 07:45:33;;;;;;;16.75;10.85;;;;;;;29.47;43.17;99089.22;5112708;28;20484;-74
2021/08/05 07:47:58;;;;;;;38.50;11.43;;;;;;;29.61;44.28;99096.44;5106666;28;20110;-78
2021/08/05 07:50:24;;;;;;;17.85;10.68;;;;;;;29.59;43.42;99092.47;5109641;28;20035;-75
2021/08/05 07:52:50;;;;;;;31.10;12.27;;;;;;;29.66;43.93;99095.03;5109577;28;20404;-72
2021/08/05 07:55:15;;;;;;;32.78;13.05;;;;;;;29.78;44.71;99096.19;5110941;28;20043;-72
2021/08/05 07:57:41;;;;;;;27.48;13.73;;;;;;;29.90;44.61;99086.59;5108824;28;20027;-80
2021/08/05 08:00:08;;;;;;;32.15;13.73;;;;;;;29.86;44.46;99088.81;5110504;28;20481;-79
2021/08/05 08:02:33;;;;;;;21.48;13.10;;;;;;;29.93;44.85;99073.31;5112864;28;20094;-78
2021/08/05 08:05:02;;;;;;;37.72;13.68;;;;;;;30.07;44.15;99074.78;5107576;28;20536;-72
2021/08/05 08:07:27;;;;;;;20.77;13.45;;;;;;;30.16;44.09;99071.91;5105272;28;20479;-72
2021/08/05 08:09:53;;;;;;;16.42;12.27;;;;;;;30.25;43.96;99062.44;5112311;27;20055;-74
2021/08/05 08:12:18;;;;;;;39.40;14.00;;;;;;;30.37;44.33;99061.47;5111238;28;20027;-71
2021/08/05 08:14:44;;;;;;;27.98;13.02;;;;;;;30.44;44.62;99062.44;5101302;28;20031;-76
2021/08/05 08:17:09;;;;;;;19.25;13.52;;;;;;;30.59;45.22;99051.81;5112114;28;20024;-71
2021/08/05 08:19:35;;;;;;;39.30;14.38;;;;;;;30.57;44.84;99047.81;5112375;28;20027;-76
2021/08/05 08:22:01;;;;;;;20.38;13.05;;;;;;;30.64;45.58;99041.75;5112446;28;20442;-72
2021/08/05 08:24:27;;;;;;;29.20;14.38;;;;;;;30.74;45.51;99040.44;5109764;28;20085;-75
2021/08/05 08:26:53;;;;;;;20.13;13.80;;;;;;;30.61;44.94;99031.16;5110995;28;20027;-73
2021/08/05 08:29:18;;;;;;;22.98;13.57;;;;;;;30.70;45.82;99033.22;5111111;28;20103;-72
2021/08/05 08:31:44;;;;;;;17.50;14.45;;;;;;;30.75;46.19;99029.69;5111151;28;20043;-72
2021/08/05 08:34:09;;;;;;;21.15;13.70;;;;;;;30.83;46.33;99030.94;5100495;28;20023;-77
2021/08/05 08:36:35;;;;;;;27.30;16.60;;;;;;;30.87;46.51;99030.78;5112462;28;20063;-77
2021/08/05 08:39:03;;;;;;;31.50;15.43;;;;;;;30.96;46.23;99022.88;5110542;28;20088;-71
2021/08/05 08:41:30;;;;;;;43.95;15.52;;;;;;;31.07;45.69;99022.34;5106287;28;20485;-72
2021/08/05 08:43:55;;;;;;;29.20;15.65;;;;;;;31.07;46.24;99022.34;5097838;28;20111;-72
2021/08/05 08:46:22;;;;;;;20.77;14.43;;;;;;;31.09;45.25;99024.72;5093687;28;20731;-73
2021/08/05 08:48:52;;;;;;;445.80;49.20;;;;;;;31.10;45.61;99027.16;5110582;28;20573;-75
2021/08/05 08:51:18;;;;;;;23.40;15.57;;;;;;;31.23;45.20;99017.47;5109527;28;20036;-74
2021/08/05 08:53:48;;;;;;;19.58;14.38;;;;;;;31.29;44.32;99015.50;5110477;28;20024;-71
2021/08/05 08:56:15;;;;;;;24.10;14.85;;;;;;;31.35;44.86;99010.69;5110248;28;20042;-73
2021/08/05 08:58:42;;;;;;;31.17;14.38;;;;;;;31.56;43.76;99015.84;5111739;28;20024;-71
2021/08/05 09:01:09;;;;;;;20.20;13.18;;;;;;;31.66;43.33;99014.50;5106448;28;20061;-71
2021/08/05 09:03:34;;;;;;;24.52;13.27;;;;;;;31.73;43.49;99014.09;5111415;28;20020;-75
2021/08/05 09:06:00;;;;;;;18.88;13.07;;;;;;;31.66;43.68;99011.59;5111834;28;20092;-72
2021/08/05 09:08:26;;;;;;;20.83;13.00;;;;;;;31.74;43.20;98995.47;5107244;28;20486;-72
2021/08/05 09:10:56;;;;;;;17.48;12.43;;;;;;;31.87;43.04;98983.66;5100292;28;20034;-71
2021/08/05 09:13:22;;;;;;;30.48;13.95;;;;;;;32.04;43.27;98989.78;5109966;28;20037;-74
2021/08/05 09:15:48;;;;;;;17.08;11.50;;;;;;;32.08;42.53;98993.28;5111519;28;20110;-73
2021/08/05 09:18:32;;;;;;;23.58;13.38;;;;;;;32.12;42.33;98986.50;5105796;28;20027;-75
2021/08/05 09:21:07;;;;;;;16.23;13.25;;;;;;;32.14;42.35;98976.03;5098100;28;20552;-78
2021/08/05 09:23:54;;;;;;;23.25;12.88;;;;;;;32.27;42.51;98972.03;5111163;28;20035;-74
2021/08/05 09:26:23;;;;;;;21.58;12.48;;;;;;;32.37;41.89;98976.47;5107992;28;20096;-74
2021/08/05 09:29:09;;;;;;;15.77;11.57;;;;;;;32.43;42.32;98967.88;5099237;28;20112;-74
2021/08/05 09:31:37;;;;;;;17.70;13.13;;;;;;;32.52;41.21;98969.88;5101754;28;20039;-76
2021/08/05 09:34:08;;;;;;;16.15;12.45;;;;;;;32.47;41.51;98959.81;5107374;28;20073;-74
2021/08/05 09:36:35;;;;;;;17.50;12.40;;;;;;;32.28;41.58;98959.97;5096789;28;20101;-74
2021/08/05 09:39:12;;;;;;;17.05;12.75;;;;;;;32.30;41.18;98948.72;5105996;28;20516;-78
2021/08/05 09:41:53;;;;;;;18.80;13.18;;;;;;;32.21;40.89;98945.91;5109081;28;20032;-72
2021/08/05 09:44:19;;;;;;;17.95;12.13;;;;;;;32.18;41.35;98952.69;5106698;28;20030;-72
2021/08/05 09:46:45;;;;;;;18.02;12.45;;;;;;;32.13;41.47;98944.72;5106239;28;20020;-71
2021/08/05 09:49:17;;;;;;;15.35;12.05;;;;;;;32.16;41.31;98940.84;5110634;28;20041;-73
2021/08/05 09:51:43;;;;;;;16.83;12.65;;;;;;;32.24;40.98;98927.59;5109069;28;20424;-72
2021/08/05 09:54:09;;;;;;;20.05;12.70;;;;;;;32.43;40.88;98930.28;5105733;28;20033;-71
2021/08/05 09:56:37;;;;;;;22.95;13.27;;;;;;;32.54;40.52;98916.00;5110479;28;20028;-71
2021/08/05 09:59:13;;;;;;;16.52;12.13;;;;;;;32.62;40.77;98905.59;5110761;28;20098;-73
2021/08/05 10:02:02;;;;;;;15.90;12.25;;;;;;;32.75;40.14;98910.28;5109362;28;20044;-71
2021/08/05 10:04:35;;;;;;;18.88;11.68;;;;;;;32.99;39.20;98907.22;5095928;28;20031;-73
2021/08/05 10:07:05;;;;;;;16.08;11.50;;;;;;;33.02;38.75;98893.81;5110083;28;20046;-74
2021/08/05 10:09:33;;;;;;;17.77;12.30;;;;;;;32.98;39.21;98894.03;5110664;28;20026;-71
2021/08/05 10:12:08;;;;;;;20.48;12.52;;;;;;;32.98;39.84;98890.38;5107141;28;20040;-72
2021/08/05 10:14:34;;;;;;;17.70;11.55;;;;;;;33.22;39.21;98883.56;5101750;28;20039;-72
2021/08/05 10:16:59;;;;;;;16.83;11.63;;;;;;;33.37;38.87;98883.50;5099493;28;20039;-70
2021/08/05 10:19:27;;;;;;;36.80;14.13;;;;;;;33.40;39.21;98873.78;5108723;28;20059;-71
2021/08/05 10:21:54;;;;;;;28.58;13.57;;;;;;;33.32;38.55;98874.22;5104295;28;20070;-70
2021/08/05 10:24:20;;;;;;;23.80;14.27;;;;;;;33.40;39.24;98862.97;5107234;28;20039;-72
2021/08/05 10:26:45;;;;;;;19.98;13.95;;;;;;;33.56;38.60;98864.50;5109046;28;20362;-71
2021/08/05 10:29:16;;;;;;;18.50;12.95;;;;;;;33.73;38.02;98863.91;5100788;28;20410;-71
2021/08/05 10:31:43;;;;;;;16.92;12.80;;;;;;;33.78;37.79;98860.25;5113056;28;20032;-72
2021/08/05 10:34:12;;;;;;;21.90;13.02;;;;;;;34.10;36.83;98856.63;5111555;28;20047;-72
2021/08/05 10:36:37;;;;;;;17.08;13.57;;;;;;;34.05;36.84;98854.47;5114483;28;20042;-71
2021/08/05 10:39:03;;;;;;;21.15;13.35;;;;;;;34.07;36.51;98846.03;5112211;28;20106;-72
2021/08/05 10:41:30;;;;;;;15.43;12.73;;;;;;;34.05;37.00;98842.88;5114367;28;20035;-72
2021/08/05 10:43:58;;;;;;;22.65;12.65;;;;;;;34.10;37.01;98839.22;5111668;28;20032;-71
2021/08/05 10:46:29;;;;;;;15.80;12.40;;;;;;;34.15;36.70;98842.16;5114050;28;20401;-72
2021/08/05 10:48:54;;;;;;;15.35;12.02;;;;;;;34.34;36.31;98835.16;5112549;28;20055;-71
2021/08/05 10:51:20;;;;;;;16.77;12.00;;;;;;;34.49;36.34;98832.91;5113729;28;20050;-71
2021/08/05 10:53:46;;;;;;;22.73;12.63;;;;;;;34.40;36.37;98815.72;5113894;28;20080;-71
2021/08/05 10:56:30;;;;;;;17.85;12.57;;;;;;;34.48;36.46;98813.13;5112232;28;20032;-71
2021/08/05 10:59:12;;;;;;;21.15;13.55;;;;;;;34.55;35.77;98810.56;5112387;28;20523;-72
2021/08/05 11:01:46;;;;;;;21.85;13.15;;;;;;;34.54;36.43;98811.88;5113063;28;20040;-71
2021/08/05 11:04:44;;;;;;;20.17;12.93;;;;;;;34.40;36.53;98807.00;5102538;28;20050;-71
2021/08/05 11:07:26;;;;;;;20.15;13.02;;;;;;;34.51;36.45;98795.50;5099857;28;20032;-71
2021/08/05 11:10:11;;;;;;;18.70;12.40;;;;;;;34.65;35.63;98802.41;5111260;28;20027;-71
2021/08/05 11:12:40;;;;;;;20.52;13.68;;;;;;;34.57;35.86;98792.59;5101245;28;20038;-71
2021/08/05 11:15:33;;;;;;;21.10;12.48;;;;;;;34.60;36.18;98790.78;5112254;28;20106;-72
2021/08/05 11:18:10;;;;;;;18.38;12.80;;;;;;;34.70;36.54;98792.97;5104934;28;20516;-72
2021/08/05 11:20:38;;;;;;;21.42;12.82;;;;;;;34.81;35.94;98785.59;5112428;28;20059;-71
2021/08/05 11:23:05;;;;;;;24.15;13.65;;;;;;;34.99;35.60;98790.16;5108802;28;20027;-71
2021/08/05 11:25:49;;;;;;;20.02;12.82;;;;;;;34.85;35.26;98775.31;5111743;28;20038;-71